Airfield :
LOGIN :

Register | Disclaimer

   EN    FR    IT 

 










Legend :    VFR   Marginal VFR   IFR   Intensive IFR   Very Intensive IFR
Visi :
Ceiling :
>= 8 km
>= 3000ft
5 to 8 km
1000 to 3000 ft
1500m to 5 km
500 to 1000 ft
800 to 1500m
200 to 500 ft
< 800m
< 200 ft
Symbols :   Thunderstorms  Fog  Heavy snow  Heavy precipitations  Wind > 20 kt
SIGMETs :     Misc.  Thunderstorms  Icing  Turbulence  Mountain Waves  Volcanic Ashes






- Airport Elevation : 1470 ft


LSMD - Dubendorf Military

CURRENT METAR :
  • 261820Z AUTO 26008KT 230V300 9999NDV -RA SCT024 OVC036 07/04 Q1006 RMK

EXPIRED METARs :
  • 261750Z AUTO 25010KT 210V290 9999NDV -RA BKN025 BKN029 OVC084 07/03 Q1006 RMK
  • 261720Z AUTO 24007KT 210V280 9999NDV -RA BKN025 BKN036 OVC041 07/04 Q1005 RMK
  • 261650Z AUTO 24010KT 200V280 9999NDV -RA FEW024 BKN030 OVC045 07/04 Q1006 RERA RMK
  • 261620Z AUTO 23008KT 190V290 9999NDV -RA BKN025 BKN033 07/04 Q1005 RERA RMK
  • 261550Z AUTO 26009KT 230V290 9999NDV RA FEW019 SCT024 BKN027 07/05 Q1005 RMK

Expired Forecast.



MET'MAP, your aeronautical weather chart ! - Copyright ORBIFLY December 2007 - Disclaimer

ORBIFLY MET'MAP TEAM :

Programming & Development : Alexandra Zaïnal
Concept & original design : Baudouin d'Aumeries
Assistance for programming : Marc-Olivier Méhu
Technical & hardware support : Manuel Goepfert

Contact : metmap@orbifly.com




SOURCES & CREDITS :

   NOAA